sensor_id;sensor_type;location;lat;lon;timestamp;pressure;altitude;pressure_sealevel;temperature;humidity
78741;BME280;68062;48.726;9.370;2023-12-29T00:02:24;98854.59;;;8.74;100.00
78741;BME280;68062;48.726;9.370;2023-12-29T00:04:52;98829.75;;;8.68;100.00
78741;BME280;68062;48.726;9.370;2023-12-29T00:07:20;98841.81;;;8.80;100.00
78741;BME280;68062;48.726;9.370;2023-12-29T00:09:49;98834.13;;;8.80;100.00
78741;BME280;68062;48.726;9.370;2023-12-29T00:12:17;98830.63;;;8.74;100.00
78741;BME280;68062;48.726;9.370;2023-12-29T00:14:45;98839.31;;;8.94;100.00
78741;BME280;68062;48.726;9.370;2023-12-29T00:17:13;98838.44;;;8.92;100.00
78741;BME280;68062;48.726;9.370;2023-12-29T00:19:41;98831.63;;;8.93;100.00
78741;BME280;68062;48.726;9.370;2023-12-29T00:22:09;98834.16;;;8.87;100.00
78741;BME280;68062;48.726;9.370;2023-12-29T00:24:46;98824.72;;;8.82;100.00
78741;BME280;68062;48.726;9.370;2023-12-29T00:27:22;98822.19;;;8.86;100.00
78741;BME280;68062;48.726;9.370;2023-12-29T00:29:50;98820.44;;;8.83;100.00
78741;BME280;68062;48.726;9.370;2023-12-29T00:32:24;98837.47;;;8.75;100.00
78741;BME280;68062;48.726;9.370;2023-12-29T00:34:56;98831.47;;;8.73;100.00
78741;BME280;68062;48.726;9.370;2023-12-29T00:37:24;98823.81;;;8.71;100.00
78741;BME280;68062;48.726;9.370;2023-12-29T00:39:53;98814.34;;;8.64;100.00
78741;BME280;68062;48.726;9.370;2023-12-29T00:42:22;98805.72;;;8.52;100.00
78741;BME280;68062;48.726;9.370;2023-12-29T00:44:51;98828.06;;;8.71;100.00
78741;BME280;68062;48.726;9.370;2023-12-29T00:47:19;98821.22;;;8.68;100.00
78741;BME280;68062;48.726;9.370;2023-12-29T00:49:50;98818.69;;;8.76;100.00
78741;BME280;68062;48.726;9.370;2023-12-29T00:52:19;98822.88;;;8.63;100.00
78741;BME280;68062;48.726;9.370;2023-12-29T00:54:47;98820.38;;;8.72;100.00
78741;BME280;68062;48.726;9.370;2023-12-29T00:57:15;98823.88;;;8.83;99.31
78741;BME280;68062;48.726;9.370;2023-12-29T00:59:46;98813.56;;;8.79;99.83
78741;BME280;68062;48.726;9.370;2023-12-29T01:02:16;98808.41;;;8.71;100.00
78741;BME280;68062;48.726;9.370;2023-12-29T01:04:43;98814.38;;;8.72;100.00
78741;BME280;68062;48.726;9.370;2023-12-29T01:07:12;98809.16;;;8.56;100.00
78741;BME280;68062;48.726;9.370;2023-12-29T01:09:40;98804.91;;;8.58;100.00
78741;BME280;68062;48.726;9.370;2023-12-29T01:12:10;98822.94;;;8.69;100.00
78741;BME280;68062;48.726;9.370;2023-12-29T01:14:38;98821.25;;;8.74;99.24
78741;BME280;68062;48.726;9.370;2023-12-29T01:17:08;98834.94;;;8.76;98.35
78741;BME280;68062;48.726;9.370;2023-12-29T01:19:36;98832.41;;;8.79;98.10
78741;BME280;68062;48.726;9.370;2023-12-29T01:22:04;98822.09;;;8.70;98.21
78741;BME280;68062;48.726;9.370;2023-12-29T01:24:32;98832.38;;;8.78;98.20
78741;BME280;68062;48.726;9.370;2023-12-29T01:27:11;98838.34;;;8.75;98.23
78741;BME280;68062;48.726;9.370;2023-12-29T01:29:39;98836.59;;;8.68;98.31
78741;BME280;68062;48.726;9.370;2023-12-29T01:32:12;98832.28;;;8.64;98.86
78741;BME280;68062;48.726;9.370;2023-12-29T01:34:41;98833.03;;;8.49;99.89
78741;BME280;68062;48.726;9.370;2023-12-29T01:37:11;98837.13;;;8.31;100.00
78741;BME280;68062;48.726;9.370;2023-12-29T01:39:38;98832.91;;;8.36;100.00
78741;BME280;68062;48.726;9.370;2023-12-29T01:42:07;98792.47;;;8.04;100.00
78741;BME280;68062;48.726;9.370;2023-12-29T01:44:35;98825.91;;;8.15;100.00
78741;BME280;68062;48.726;9.370;2023-12-29T01:47:05;98832.72;;;8.18;100.00
78741;BME280;68062;48.726;9.370;2023-12-29T01:49:41;98831.84;;;8.13;100.00
78741;BME280;68062;48.726;9.370;2023-12-29T01:52:14;98820.03;;;8.30;99.96
78741;BME280;68062;48.726;9.370;2023-12-29T01:54:45;98825.16;;;8.29;99.75
78741;BME280;68062;48.726;9.370;2023-12-29T01:57:14;98819.25;;;8.40;97.55
78741;BME280;68062;48.726;9.370;2023-12-29T01:59:42;98822.72;;;8.44;97.74
78741;BME280;68062;48.726;9.370;2023-12-29T02:02:11;98831.28;;;8.48;96.96
78741;BME280;68062;48.726;9.370;2023-12-29T02:04:41;98826.22;;;8.49;97.31
78741;BME280;68062;48.726;9.370;2023-12-29T02:07:10;98821.94;;;8.53;95.88
78741;BME280;68062;48.726;9.370;2023-12-29T02:09:38;98819.41;;;8.56;95.81
78741;BME280;68062;48.726;9.370;2023-12-29T02:12:07;98811.66;;;8.48;97.27
78741;BME280;68062;48.726;9.370;2023-12-29T02:14:35;98821.06;;;8.51;97.28
78741;BME280;68062;48.726;9.370;2023-12-29T02:17:10;98810.03;;;8.57;97.14
78741;BME280;68062;48.726;9.370;2023-12-29T02:19:40;98798.97;;;8.65;95.46
78741;BME280;68062;48.726;9.370;2023-12-29T02:22:11;98803.22;;;8.62;95.91
78741;BME280;68062;48.726;9.370;2023-12-29T02:24:45;98815.16;;;8.61;96.84
78741;BME280;68062;48.726;9.370;2023-12-29T02:27:23;98813.50;;;8.66;96.53
78741;BME280;68062;48.726;9.370;2023-12-29T02:30:09;98796.44;;;8.70;94.97
78741;BME280;68062;48.726;9.370;2023-12-29T02:32:39;98805.00;;;8.77;94.39
78741;BME280;68062;48.726;9.370;2023-12-29T02:35:09;98800.72;;;8.76;95.07
78741;BME280;68062;48.726;9.370;2023-12-29T02:37:38;98807.59;;;8.77;94.59
78741;BME280;68062;48.726;9.370;2023-12-29T02:40:10;98802.47;;;8.78;94.06
78741;BME280;68062;48.726;9.370;2023-12-29T02:42:38;98799.84;;;8.69;95.18
78741;BME280;68062;48.726;9.370;2023-12-29T02:45:07;98799.91;;;8.75;96.00
78741;BME280;68062;48.726;9.370;2023-12-29T02:47:37;98806.72;;;8.75;95.39
78741;BME280;68062;48.726;9.370;2023-12-29T02:50:05;98793.06;;;8.74;95.00
78741;BME280;68062;48.726;9.370;2023-12-29T02:52:33;98795.59;;;8.73;97.09
78741;BME280;68062;48.726;9.370;2023-12-29T02:55:02;98747.56;;;8.48;97.10
78741;BME280;68062;48.726;9.370;2023-12-29T02:57:33;98785.31;;;8.68;97.26
78741;BME280;68062;48.726;9.370;2023-12-29T03:00:01;98780.19;;;8.65;97.46
78741;BME280;68062;48.726;9.370;2023-12-29T03:02:31;98787.06;;;8.72;98.76
78741;BME280;68062;48.726;9.370;2023-12-29T03:04:59;98780.22;;;8.71;99.20
78741;BME280;68062;48.726;9.370;2023-12-29T03:07:27;98792.25;;;8.86;100.00
78741;BME280;68062;48.726;9.370;2023-12-29T03:09:55;98781.97;;;8.78;100.00
78741;BME280;68062;48.726;9.370;2023-12-29T03:12:23;98781.06;;;8.73;100.00
78741;BME280;68062;48.726;9.370;2023-12-29T03:14:52;98784.47;;;8.69;100.00
78741;BME280;68062;48.726;9.370;2023-12-29T03:17:20;98768.19;;;8.65;100.00
78741;BME280;68062;48.726;9.370;2023-12-29T03:19:48;98786.16;;;8.68;100.00
78741;BME280;68062;48.726;9.370;2023-12-29T03:22:16;98775.09;;;8.71;100.00
78741;BME280;68062;48.726;9.370;2023-12-29T03:24:44;98773.38;;;8.73;100.00
78741;BME280;68062;48.726;9.370;2023-12-29T03:27:12;98767.38;;;8.73;100.00
78741;BME280;68062;48.726;9.370;2023-12-29T03:29:39;98763.97;;;8.74;100.00
78741;BME280;68062;48.726;9.370;2023-12-29T03:32:09;98782.81;;;8.77;100.00
78741;BME280;68062;48.726;9.370;2023-12-29T03:34:38;98783.66;;;8.76;100.00
78741;BME280;68062;48.726;9.370;2023-12-29T03:37:06;98770.78;;;8.72;100.00
78741;BME280;68062;48.726;9.370;2023-12-29T03:39:34;98748.59;;;8.74;100.00
78741;BME280;68062;48.726;9.370;2023-12-29T03:42:04;98757.94;;;8.64;100.00
78741;BME280;68062;48.726;9.370;2023-12-29T03:44:32;98763.97;;;8.71;100.00
78741;BME280;68062;48.726;9.370;2023-12-29T03:47:00;98758.84;;;8.69;100.00
78741;BME280;68062;48.726;9.370;2023-12-29T03:49:30;98755.41;;;8.67;100.00
78741;BME280;68062;48.726;9.370;2023-12-29T03:51:59;98754.47;;;8.52;100.00
78741;BME280;68062;48.726;9.370;2023-12-29T03:54:27;98757.00;;;8.51;100.00
78741;BME280;68062;48.726;9.370;2023-12-29T03:56:55;98752.56;;;8.30;100.00
78741;BME280;68062;48.726;9.370;2023-12-29T03:59:23;98756.78;;;8.23;100.00
78741;BME280;68062;48.726;9.370;2023-12-29T04:01:51;98746.53;;;8.26;100.00
78741;BME280;68062;48.726;9.370;2023-12-29T04:04:19;98744.00;;;8.24;100.00
78741;BME280;68062;48.726;9.370;2023-12-29T04:06:49;98756.91;;;8.42;100.00
78741;BME280;68062;48.726;9.370;2023-12-29T04:09:17;98739.63;;;8.16;100.00
78741;BME280;68062;48.726;9.370;2023-12-29T04:11:45;98758.47;;;8.21;100.00
78741;BME280;68062;48.726;9.370;2023-12-29T04:14:13;98757.53;;;8.09;100.00
78741;BME280;68062;48.726;9.370;2023-12-29T04:16:42;98750.69;;;8.08;100.00
78741;BME280;68062;48.726;9.370;2023-12-29T04:19:10;98751.66;;;8.21;100.00
78741;BME280;68062;48.726;9.370;2023-12-29T04:21:41;98743.94;;;8.18;100.00
78741;BME280;68062;48.726;9.370;2023-12-29T04:24:11;98753.38;;;8.22;100.00
78741;BME280;68062;48.726;9.370;2023-12-29T04:26:39;98746.47;;;8.14;100.00
78741;BME280;68062;48.726;9.370;2023-12-29T04:29:08;98746.34;;;8.01;100.00
78741;BME280;68062;48.726;9.370;2023-12-29T04:31:36;98741.22;;;7.95;100.00
78741;BME280;68062;48.726;9.370;2023-12-29T04:34:04;98733.38;;;7.78;100.00
78741;BME280;68062;48.726;9.370;2023-12-29T04:36:33;98758.28;;;7.99;100.00
78741;BME280;68062;48.726;9.370;2023-12-29T04:39:01;98754.03;;;7.97;100.00
78741;BME280;68062;48.726;9.370;2023-12-29T04:41:30;98746.34;;;7.95;100.00
78741;BME280;68062;48.726;9.370;2023-12-29T04:43:59;98754.03;;;7.95;100.00
78741;BME280;68062;48.726;9.370;2023-12-29T04:46:27;98758.41;;;8.12;100.00
78741;BME280;68062;48.726;9.370;2023-12-29T04:48:56;98762.53;;;7.97;100.00
78741;BME280;68062;48.726;9.370;2023-12-29T04:51:24;98754.91;;;8.03;100.00
78741;BME280;68062;48.726;9.370;2023-12-29T04:53:53;98759.97;;;7.92;100.00
78741;BME280;68062;48.726;9.370;2023-12-29T04:56:22;98769.25;;;7.81;100.00
78741;BME280;68062;48.726;9.370;2023-12-29T04:58:52;98773.53;;;7.85;100.00
78741;BME280;68062;48.726;9.370;2023-12-29T05:01:20;98776.16;;;7.90;100.00
78741;BME280;68062;48.726;9.370;2023-12-29T05:03:48;98763.09;;;7.63;100.00
78741;BME280;68062;48.726;9.370;2023-12-29T05:06:16;98766.63;;;7.75;100.00
78741;BME280;68062;48.726;9.370;2023-12-29T05:08:44;98766.69;;;7.79;100.00
78741;BME280;68062;48.726;9.370;2023-12-29T05:11:12;98763.25;;;7.77;100.00
78741;BME280;68062;48.726;9.370;2023-12-29T05:13:40;98765.63;;;7.59;100.00
78741;BME280;68062;48.726;9.370;2023-12-29T05:16:10;98762.84;;;7.37;100.00
78741;BME280;68062;48.726;9.370;2023-12-29T05:18:38;98764.41;;;7.26;100.00
78741;BME280;68062;48.726;9.370;2023-12-29T05:21:14;98763.53;;;7.24;100.00
78741;BME280;68062;48.726;9.370;2023-12-29T05:23:43;98744.91;;;7.35;100.00
78741;BME280;68062;48.726;9.370;2023-12-29T05:26:11;98738.69;;;7.15;100.00
78741;BME280;68062;48.726;9.370;2023-12-29T05:28:39;98758.34;;;7.17;100.00
78741;BME280;68062;48.726;9.370;2023-12-29T05:31:09;98708.72;;;7.01;100.00
78741;BME280;68062;48.726;9.370;2023-12-29T05:33:37;98759.38;;;7.33;100.00
78741;BME280;68062;48.726;9.370;2023-12-29T05:36:09;98754.06;;;7.16;100.00
78741;BME280;68062;48.726;9.370;2023-12-29T05:38:38;98757.25;;;6.98;100.00
78741;BME280;68062;48.726;9.370;2023-12-29T05:41:07;98752.97;;;6.96;100.00
78741;BME280;68062;48.726;9.370;2023-12-29T05:43:36;98740.94;;;6.88;100.00
78741;BME280;68062;48.726;9.370;2023-12-29T05:46:10;98758.94;;;6.95;100.00
78741;BME280;68062;48.726;9.370;2023-12-29T05:48:39;98757.06;;;6.81;100.00
78741;BME280;68062;48.726;9.370;2023-12-29T05:51:08;98747.63;;;6.78;100.00
78741;BME280;68062;48.726;9.370;2023-12-29T05:53:39;98767.09;;;6.69;100.00
78741;BME280;68062;48.726;9.370;2023-12-29T05:56:15;98749.88;;;6.54;100.00
78741;BME280;68062;48.726;9.370;2023-12-29T05:58:43;98757.41;;;6.44;100.00
78741;BME280;68062;48.726;9.370;2023-12-29T06:01:13;98755.50;;;6.31;100.00
78741;BME280;68062;48.726;9.370;2023-12-29T06:03:41;98756.25;;;6.24;100.00
78741;BME280;68062;48.726;9.370;2023-12-29T06:06:08;98753.59;;;6.19;100.00
78741;BME280;68062;48.726;9.370;2023-12-29T06:08:37;98762.34;;;6.32;100.00
78741;BME280;68062;48.726;9.370;2023-12-29T06:11:05;98767.69;;;6.49;100.00
78741;BME280;68062;48.726;9.370;2023-12-29T06:13:33;98761.78;;;6.53;100.00
78741;BME280;68062;48.726;9.370;2023-12-29T06:16:01;98768.72;;;6.62;100.00
78741;BME280;68062;48.726;9.370;2023-12-29T06:18:31;98765.28;;;6.60;100.00
78741;BME280;68062;48.726;9.370;2023-12-29T06:21:01;98774.81;;;6.73;100.00
78741;BME280;68062;48.726;9.370;2023-12-29T06:23:31;98774.91;;;6.80;100.00
78741;BME280;68062;48.726;9.370;2023-12-29T06:25:59;98781.56;;;6.67;100.00
78741;BME280;68062;48.726;9.370;2023-12-29T06:28:27;98778.91;;;6.59;100.00
78741;BME280;68062;48.726;9.370;2023-12-29T06:30:56;98788.25;;;6.58;100.00
78741;BME280;68062;48.726;9.370;2023-12-29T06:33:24;98777.97;;;6.54;100.00
78741;BME280;68062;48.726;9.370;2023-12-29T06:35:56;98780.50;;;6.51;100.00
78741;BME280;68062;48.726;9.370;2023-12-29T06:38:24;98779.63;;;6.48;100.00
78741;BME280;68062;48.726;9.370;2023-12-29T06:40:52;98768.47;;;6.45;100.00
78741;BME280;68062;48.726;9.370;2023-12-29T06:43:21;98765.00;;;6.40;100.00
78741;BME280;68062;48.726;9.370;2023-12-29T06:45:49;98765.69;;;6.29;100.00
78741;BME280;68062;48.726;9.370;2023-12-29T06:48:17;98761.31;;;6.21;100.00
78741;BME280;68062;48.726;9.370;2023-12-29T06:50:46;98765.53;;;6.18;100.00
78741;BME280;68062;48.726;9.370;2023-12-29T06:53:16;98760.47;;;6.22;100.00
78741;BME280;68062;48.726;9.370;2023-12-29T06:55:44;98765.59;;;6.23;100.00
78741;BME280;68062;48.726;9.370;2023-12-29T06:58:13;98764.75;;;6.23;100.00
78741;BME280;68062;48.726;9.370;2023-12-29T07:00:41;98762.00;;;6.12;100.00
78741;BME280;68062;48.726;9.370;2023-12-29T07:03:12;98757.63;;;6.04;100.00
78741;BME280;68062;48.726;9.370;2023-12-29T07:05:40;98763.63;;;6.07;100.00
78741;BME280;68062;48.726;9.370;2023-12-29T07:08:08;98775.53;;;6.06;100.00
78741;BME280;68062;48.726;9.370;2023-12-29T07:10:37;98766.03;;;5.99;100.00
78741;BME280;68062;48.726;9.370;2023-12-29T07:13:06;98763.38;;;5.93;100.00
78741;BME280;68062;48.726;9.370;2023-12-29T07:15:35;98780.41;;;5.95;100.00
78741;BME280;68062;48.726;9.370;2023-12-29T07:18:03;98760.81;;;5.93;100.00
78741;BME280;68062;48.726;9.370;2023-12-29T07:20:32;98762.44;;;5.89;100.00
78741;BME280;68062;48.726;9.370;2023-12-29T07:23:00;98761.44;;;5.79;100.00
78741;BME280;68062;48.726;9.370;2023-12-29T07:25:28;98768.22;;;5.77;100.00
78741;BME280;68062;48.726;9.370;2023-12-29T07:27:58;98755.19;;;5.62;100.00
78741;BME280;68062;48.726;9.370;2023-12-29T07:30:27;98772.22;;;5.64;100.00
78741;BME280;68062;48.726;9.370;2023-12-29T07:32:55;98768.88;;;5.67;100.00
78741;BME280;68062;48.726;9.370;2023-12-29T07:35:23;98766.44;;;5.73;100.00
78741;BME280;68062;48.726;9.370;2023-12-29T07:37:51;98760.63;;;5.80;100.00
78741;BME280;68062;48.726;9.370;2023-12-29T07:40:19;98763.28;;;5.88;100.00
78741;BME280;68062;48.726;9.370;2023-12-29T07:42:47;98748.06;;;5.93;100.00
78741;BME280;68062;48.726;9.370;2023-12-29T07:45:18;98761.97;;;6.09;100.00
78741;BME280;68062;48.726;9.370;2023-12-29T07:47:46;98733.84;;;6.07;100.00
78741;BME280;68062;48.726;9.370;2023-12-29T07:50:14;98758.94;;;6.35;100.00
78741;BME280;68062;48.726;9.370;2023-12-29T07:52:43;98776.41;;;6.65;100.00
78741;BME280;68062;48.726;9.370;2023-12-29T07:55:11;98771.50;;;6.79;100.00
78741;BME280;68062;48.726;9.370;2023-12-29T07:57:40;98770.00;;;6.95;100.00
78741;BME280;68062;48.726;9.370;2023-12-29T08:00:09;98763.31;;;7.06;100.00
78741;BME280;68062;48.726;9.370;2023-12-29T08:02:40;98767.78;;;7.23;100.00
78741;BME280;68062;48.726;9.370;2023-12-29T08:05:08;98754.25;;;7.33;100.00
78741;BME280;68062;48.726;9.370;2023-12-29T08:07:37;98763.13;;;7.66;100.00
78741;BME280;68062;48.726;9.370;2023-12-29T08:10:06;98751.38;;;7.87;100.00
78741;BME280;68062;48.726;9.370;2023-12-29T08:12:35;98756.63;;;8.03;100.00
78741;BME280;68062;48.726;9.370;2023-12-29T08:15:04;98755.84;;;8.10;100.00
78741;BME280;68062;48.726;9.370;2023-12-29T08:17:33;98753.41;;;8.30;100.00
78741;BME280;68062;48.726;9.370;2023-12-29T08:20:03;98741.41;;;8.26;100.00
78741;BME280;68062;48.726;9.370;2023-12-29T08:22:32;98771.50;;;8.49;100.00
78741;BME280;68062;48.726;9.370;2023-12-29T08:25:00;98769.78;;;8.46;100.00
78741;BME280;68062;48.726;9.370;2023-12-29T08:27:28;98771.59;;;8.61;100.00
78741;BME280;68062;48.726;9.370;2023-12-29T08:29:56;98776.75;;;8.64;100.00
78741;BME280;68062;48.726;9.370;2023-12-29T08:32:24;98777.69;;;8.82;100.00
78741;BME280;68062;48.726;9.370;2023-12-29T08:34:52;98784.59;;;8.91;100.00
78741;BME280;68062;48.726;9.370;2023-12-29T08:37:22;98779.47;;;8.94;100.00
78741;BME280;68062;48.726;9.370;2023-12-29T08:39:50;98776.13;;;9.10;100.00
78741;BME280;68062;48.726;9.370;2023-12-29T08:42:18;98783.88;;;9.24;100.00
78741;BME280;68062;48.726;9.370;2023-12-29T08:44:45;98794.19;;;9.45;100.00
78741;BME280;68062;48.726;9.370;2023-12-29T08:47:14;98786.53;;;9.46;100.00
78741;BME280;68062;48.726;9.370;2023-12-29T08:49:42;98781.44;;;9.62;100.00
78741;BME280;68062;48.726;9.370;2023-12-29T08:52:10;98774.59;;;9.67;100.00
78741;BME280;68062;48.726;9.370;2023-12-29T08:54:40;98773.75;;;9.83;100.00
78741;BME280;68062;48.726;9.370;2023-12-29T08:57:08;98754.06;;;9.81;100.00
78741;BME280;68062;48.726;9.370;2023-12-29T08:59:37;98760.06;;;10.01;100.00
78741;BME280;68062;48.726;9.370;2023-12-29T09:02:05;98778.06;;;10.12;100.00
78741;BME280;68062;48.726;9.370;2023-12-29T09:04:33;98777.22;;;10.10;100.00
78741;BME280;68062;48.726;9.370;2023-12-29T09:07:01;98778.91;;;10.02;100.00
78741;BME280;68062;48.726;9.370;2023-12-29T09:09:31;98781.47;;;9.88;100.00
78741;BME280;68062;48.726;9.370;2023-12-29T09:12:00;98780.59;;;9.77;100.00
78741;BME280;68062;48.726;9.370;2023-12-29T09:14:28;98782.31;;;9.70;100.00
78741;BME280;68062;48.726;9.370;2023-12-29T09:16:59;98781.38;;;9.51;100.00
78741;BME280;68062;48.726;9.370;2023-12-29T09:19:27;98774.56;;;9.57;100.00
78741;BME280;68062;48.726;9.370;2023-12-29T09:22:05;98785.72;;;9.66;100.00
78741;BME280;68062;48.726;9.370;2023-12-29T09:24:33;98769.44;;;9.57;100.00
78741;BME280;68062;48.726;9.370;2023-12-29T09:27:10;98783.16;;;9.74;100.00
78741;BME280;68062;48.726;9.370;2023-12-29T09:29:38;98773.75;;;9.74;100.00
78741;BME280;68062;48.726;9.370;2023-12-29T09:32:07;98781.44;;;9.82;100.00
78741;BME280;68062;48.726;9.370;2023-12-29T09:34:35;98785.78;;;9.97;100.00
78741;BME280;68062;48.726;9.370;2023-12-29T09:37:03;98787.47;;;10.02;100.00
78741;BME280;68062;48.726;9.370;2023-12-29T09:39:31;98795.19;;;10.06;100.00
78741;BME280;68062;48.726;9.370;2023-12-29T09:42:01;98773.78;;;10.16;100.00
78741;BME280;68062;48.726;9.370;2023-12-29T09:44:36;98798.63;;;10.36;100.00
78741;BME280;68062;48.726;9.370;2023-12-29T09:47:06;98801.19;;;10.34;100.00
78741;BME280;68062;48.726;9.370;2023-12-29T09:49:37;98793.47;;;10.36;100.00
78741;BME280;68062;48.726;9.370;2023-12-29T09:52:09;98780.63;;;10.36;100.00
78741;BME280;68062;48.726;9.370;2023-12-29T09:54:39;98792.59;;;10.71;100.00
78741;BME280;68062;48.726;9.370;2023-12-29T09:57:08;98796.72;;;11.26;100.00
78741;BME280;68062;48.726;9.370;2023-12-29T09:59:40;98796.78;;;11.11;99.32
78741;BME280;68062;48.726;9.370;2023-12-29T10:02:13;98789.19;;;10.64;100.00
78741;BME280;68062;48.726;9.370;2023-12-29T10:04:42;98793.50;;;10.47;100.00
78741;BME280;68062;48.726;9.370;2023-12-29T10:07:18;98801.19;;;10.34;100.00
78741;BME280;68062;48.726;9.370;2023-12-29T10:09:50;98797.78;;;10.32;100.00
78741;BME280;68062;48.726;9.370;2023-12-29T10:12:21;98802.91;;;10.18;100.00
78741;BME280;68062;48.726;9.370;2023-12-29T10:14:57;98796.03;;;10.11;100.00
78741;BME280;68062;48.726;9.370;2023-12-29T10:17:39;98788.34;;;10.19;100.00
78741;BME280;68062;48.726;9.370;2023-12-29T10:20:16;98778.06;;;10.20;100.00
78741;BME280;68062;48.726;9.370;2023-12-29T10:23:00;98780.63;;;10.26;100.00
78741;BME280;68062;48.726;9.370;2023-12-29T10:25:32;98771.22;;;10.44;100.00
78741;BME280;68062;48.726;9.370;2023-12-29T10:28:01;98769.47;;;10.62;100.00
78741;BME280;68062;48.726;9.370;2023-12-29T10:30:31;98770.16;;;11.15;99.21
78741;BME280;68062;48.726;9.370;2023-12-29T10:33:03;98764.84;;;11.57;93.88
78741;BME280;68062;48.726;9.370;2023-12-29T10:35:35;98741.47;;;11.85;91.37
78741;BME280;68062;48.726;9.370;2023-12-29T10:38:08;98752.78;;;12.66;88.30
78741;BME280;68062;48.726;9.370;2023-12-29T10:40:37;98741.56;;;13.41;82.67
78741;BME280;68062;48.726;9.370;2023-12-29T10:43:05;98745.13;;;13.95;79.90
78741;BME280;68062;48.726;9.370;2023-12-29T10:45:36;98743.88;;;13.63;78.57
78741;BME280;68062;48.726;9.370;2023-12-29T10:48:05;98737.78;;;13.01;81.32
78741;BME280;68062;48.726;9.370;2023-12-29T10:50:43;98739.13;;;12.55;83.58
78741;BME280;68062;48.726;9.370;2023-12-29T10:53:12;98739.47;;;12.23;83.92
78741;BME280;68062;48.726;9.370;2023-12-29T10:55:44;98731.88;;;11.99;85.83
78741;BME280;68062;48.726;9.370;2023-12-29T10:58:15;98742.34;;;11.79;87.11
78741;BME280;68062;48.726;9.370;2023-12-29T11:00:45;98742.50;;;11.56;89.53
78741;BME280;68062;48.726;9.370;2023-12-29T11:03:14;98717.75;;;11.33;90.80
78741;BME280;68062;48.726;9.370;2023-12-29T11:05:43;98708.28;;;11.33;90.84
78741;BME280;68062;48.726;9.370;2023-12-29T11:08:15;98714.25;;;11.45;91.22
78741;BME280;68062;48.726;9.370;2023-12-29T11:10:44;98716.06;;;11.29;90.97
78741;BME280;68062;48.726;9.370;2023-12-29T11:13:13;98721.16;;;11.41;90.57
78741;BME280;68062;48.726;9.370;2023-12-29T11:15:48;98718.50;;;11.52;89.49
78741;BME280;68062;48.726;9.370;2023-12-29T11:18:17;98709.06;;;11.48;88.16
78741;BME280;68062;48.726;9.370;2023-12-29T11:20:46;98710.72;;;11.58;87.96
78741;BME280;68062;48.726;9.370;2023-12-29T11:23:15;98699.63;;;11.50;87.73
78741;BME280;68062;48.726;9.370;2023-12-29T11:25:44;98721.94;;;11.48;86.61
78741;BME280;68062;48.726;9.370;2023-12-29T11:28:13;98699.63;;;11.52;86.58
78741;BME280;68062;48.726;9.370;2023-12-29T11:30:41;98689.25;;;11.61;85.73
78741;BME280;68062;48.726;9.370;2023-12-29T11:33:15;98674.59;;;11.68;85.52
78741;BME280;68062;48.726;9.370;2023-12-29T11:35:49;98678.84;;;11.72;84.83
78741;BME280;68062;48.726;9.370;2023-12-29T11:38:30;98678.03;;;11.67;83.67
78741;BME280;68062;48.726;9.370;2023-12-29T11:41:07;98667.88;;;11.48;82.23
78741;BME280;68062;48.726;9.370;2023-12-29T11:43:37;98682.31;;;11.72;82.97
78741;BME280;68062;48.726;9.370;2023-12-29T11:46:06;98676.19;;;11.86;81.52
78741;BME280;68062;48.726;9.370;2023-12-29T11:48:58;98657.34;;;11.81;82.08
78741;BME280;68062;48.726;9.370;2023-12-29T11:51:32;98663.81;;;12.22;80.54
78741;BME280;68062;48.726;9.370;2023-12-29T11:54:06;98650.25;;;12.06;78.67
78741;BME280;68062;48.726;9.370;2023-12-29T11:56:55;98617.91;;;11.68;79.82
78741;BME280;68062;48.726;9.370;2023-12-29T11:59:24;98676.06;;;12.01;79.89
78741;BME280;68062;48.726;9.370;2023-12-29T12:01:55;98661.47;;;12.02;79.71
78741;BME280;68062;48.726;9.370;2023-12-29T12:04:41;98666.47;;;12.17;79.30
78741;BME280;68062;48.726;9.370;2023-12-29T12:07:15;98663.81;;;12.24;78.53
78741;BME280;68062;48.726;9.370;2023-12-29T12:09:43;98669.63;;;12.44;76.49
78741;BME280;68062;48.726;9.370;2023-12-29T12:12:40;98646.84;;;12.04;77.12
78741;BME280;68062;48.726;9.370;2023-12-29T12:15:31;98663.16;;;12.03;77.95
78741;BME280;68062;48.726;9.370;2023-12-29T12:18:01;98655.56;;;11.84;78.43
78741;BME280;68062;48.726;9.370;2023-12-29T12:20:34;98655.44;;;11.98;77.74
78741;BME280;68062;48.726;9.370;2023-12-29T12:23:07;98653.81;;;11.91;78.18
78741;BME280;68062;48.726;9.370;2023-12-29T12:25:39;98648.44;;;12.13;75.85
78741;BME280;68062;48.726;9.370;2023-12-29T12:28:13;98620.09;;;12.13;75.64
78741;BME280;68062;48.726;9.370;2023-12-29T12:30:44;98639.84;;;12.15;76.13
78741;BME280;68062;48.726;9.370;2023-12-29T12:33:13;98612.28;;;12.20;75.36
78741;BME280;68062;48.726;9.370;2023-12-29T12:35:43;98621.38;;;12.51;73.16
78741;BME280;68062;48.726;9.370;2023-12-29T12:38:16;98628.09;;;12.66;73.70
78741;BME280;68062;48.726;9.370;2023-12-29T12:40:49;98624.66;;;12.67;73.20
78741;BME280;68062;48.726;9.370;2023-12-29T12:43:17;98620.22;;;12.78;72.13
78741;BME280;68062;48.726;9.370;2023-12-29T12:45:48;98620.25;;;12.75;71.60
78741;BME280;68062;48.726;9.370;2023-12-29T12:48:21;98622.94;;;13.29;68.75
78741;BME280;68062;48.726;9.370;2023-12-29T12:50:54;98607.25;;;13.41;69.51
78741;BME280;68062;48.726;9.370;2023-12-29T12:53:24;98609.81;;;13.44;67.79
78741;BME280;68062;48.726;9.370;2023-12-29T12:55:52;98606.41;;;13.42;67.96
78741;BME280;68062;48.726;9.370;2023-12-29T12:58:22;98612.63;;;13.82;66.33
78741;BME280;68062;48.726;9.370;2023-12-29T13:00:51;98618.81;;;14.22;65.72
78741;BME280;68062;48.726;9.370;2023-12-29T13:03:22;98628.41;;;14.15;64.25
78741;BME280;68062;48.726;9.370;2023-12-29T13:05:50;98631.94;;;14.12;64.19
78741;BME280;68062;48.726;9.370;2023-12-29T13:08:22;98631.38;;;13.93;65.05
78741;BME280;68062;48.726;9.370;2023-12-29T13:11:03;98631.16;;;14.07;65.20
78741;BME280;68062;48.726;9.370;2023-12-29T13:13:38;98631.19;;;14.51;62.96
78741;BME280;68062;48.726;9.370;2023-12-29T13:16:06;98613.78;;;14.58;61.02